sensor_id;sensor_type;location;lat;lon;timestamp;P1;durP1;ratioP1;P2;durP2;ratioP2
40635;SDS011;26642;55.766;37.828;2022-10-16T00:00:00;5.78;;;3.10;;
40635;SDS011;26642;55.766;37.828;2022-10-16T00:02:26;5.15;;;3.60;;
40635;SDS011;26642;55.766;37.828;2022-10-16T00:04:52;5.25;;;3.47;;
40635;SDS011;26642;55.766;37.828;2022-10-16T00:07:19;6.97;;;2.83;;
40635;SDS011;26642;55.766;37.828;2022-10-16T00:09:45;6.15;;;3.50;;
40635;SDS011;26642;55.766;37.828;2022-10-16T00:12:11;5.75;;;3.30;;
40635;SDS011;26642;55.766;37.828;2022-10-16T00:14:37;4.78;;;3.20;;
40635;SDS011;26642;55.766;37.828;2022-10-16T00:17:06;5.63;;;3.15;;
40635;SDS011;26642;55.766;37.828;2022-10-16T00:19:32;5.22;;;3.50;;
40635;SDS011;26642;55.766;37.828;2022-10-16T00:21:57;3.40;;;2.90;;
40635;SDS011;26642;55.766;37.828;2022-10-16T00:24:42;7.60;;;3.20;;
40635;SDS011;26642;55.766;37.828;2022-10-16T00:27:08;9.27;;;3.47;;
40635;SDS011;26642;55.766;37.828;2022-10-16T00:29:34;6.00;;;3.55;;
40635;SDS011;26642;55.766;37.828;2022-10-16T00:31:59;6.00;;;3.33;;
40635;SDS011;26642;55.766;37.828;2022-10-16T00:34:25;6.07;;;3.17;;
40635;SDS011;26642;55.766;37.828;2022-10-16T00:36:51;5.60;;;3.38;;
40635;SDS011;26642;55.766;37.828;2022-10-16T00:39:17;6.38;;;3.00;;
40635;SDS011;26642;55.766;37.828;2022-10-16T00:41:43;7.05;;;3.45;;
40635;SDS011;26642;55.766;37.828;2022-10-16T00:47:12;6.38;;;3.50;;
40635;SDS011;26642;55.766;37.828;2022-10-16T00:49:43;4.93;;;3.33;;
40635;SDS011;26642;55.766;37.828;2022-10-16T00:52:10;6.43;;;3.50;;
40635;SDS011;26642;55.766;37.828;2022-10-16T00:54:36;6.10;;;3.33;;
40635;SDS011;26642;55.766;37.828;2022-10-16T00:57:03;4.70;;;3.60;;
40635;SDS011;26642;55.766;37.828;2022-10-16T00:59:34;3.78;;;3.20;;
40635;SDS011;26642;55.766;37.828;2022-10-16T01:02:04;6.60;;;3.63;;
40635;SDS011;26642;55.766;37.828;2022-10-16T01:04:35;7.85;;;3.47;;
40635;SDS011;26642;55.766;37.828;2022-10-16T01:13:11;5.78;;;3.53;;
40635;SDS011;26642;55.766;37.828;2022-10-16T01:15:36;5.85;;;3.75;;
40635;SDS011;26642;55.766;37.828;2022-10-16T01:21:31;6.63;;;3.60;;
40635;SDS011;26642;55.766;37.828;2022-10-16T01:26:36;6.93;;;3.88;;
40635;SDS011;26642;55.766;37.828;2022-10-16T01:31:49;7.47;;;3.03;;
40635;SDS011;26642;55.766;37.828;2022-10-16T01:34:22;6.93;;;3.60;;
40635;SDS011;26642;55.766;37.828;2022-10-16T01:37:00;6.22;;;3.47;;
40635;SDS011;26642;55.766;37.828;2022-10-16T01:39:31;6.18;;;3.47;;
40635;SDS011;26642;55.766;37.828;2022-10-16T01:42:22;5.05;;;3.63;;
40635;SDS011;26642;55.766;37.828;2022-10-16T01:44:49;5.63;;;3.47;;
40635;SDS011;26642;55.766;37.828;2022-10-16T01:47:18;3.92;;;2.90;;
40635;SDS011;26642;55.766;37.828;2022-10-16T01:49:49;4.63;;;3.13;;
40635;SDS011;26642;55.766;37.828;2022-10-16T01:52:18;8.55;;;3.78;;
40635;SDS011;26642;55.766;37.828;2022-10-16T01:54:49;6.10;;;3.70;;
40635;SDS011;26642;55.766;37.828;2022-10-16T01:57:20;4.93;;;3.28;;
40635;SDS011;26642;55.766;37.828;2022-10-16T01:59:49;5.78;;;3.58;;
40635;SDS011;26642;55.766;37.828;2022-10-16T02:02:19;4.82;;;3.60;;
40635;SDS011;26642;55.766;37.828;2022-10-16T02:04:58;4.47;;;3.42;;
40635;SDS011;26642;55.766;37.828;2022-10-16T02:07:30;6.13;;;3.92;;
40635;SDS011;26642;55.766;37.828;2022-10-16T02:09:56;5.82;;;3.42;;
40635;SDS011;26642;55.766;37.828;2022-10-16T02:12:26;5.50;;;3.67;;
40635;SDS011;26642;55.766;37.828;2022-10-16T02:14:54;3.67;;;3.03;;
40635;SDS011;26642;55.766;37.828;2022-10-16T02:17:21;5.97;;;3.25;;
40635;SDS011;26642;55.766;37.828;2022-10-16T02:19:47;5.80;;;3.72;;
40635;SDS011;26642;55.766;37.828;2022-10-16T02:25:08;9.23;;;3.42;;
40635;SDS011;26642;55.766;37.828;2022-10-16T02:30:15;5.65;;;3.55;;
40635;SDS011;26642;55.766;37.828;2022-10-16T02:32:55;8.30;;;3.58;;
40635;SDS011;26642;55.766;37.828;2022-10-16T02:35:24;5.20;;;3.47;;
40635;SDS011;26642;55.766;37.828;2022-10-16T02:37:52;8.48;;;3.78;;
40635;SDS011;26642;55.766;37.828;2022-10-16T02:40:19;5.68;;;3.53;;
40635;SDS011;26642;55.766;37.828;2022-10-16T02:42:49;5.38;;;3.72;;
40635;SDS011;26642;55.766;37.828;2022-10-16T02:45:19;8.43;;;3.70;;
40635;SDS011;26642;55.766;37.828;2022-10-16T02:47:45;5.53;;;4.05;;
40635;SDS011;26642;55.766;37.828;2022-10-16T02:50:11;7.75;;;3.58;;
40635;SDS011;26642;55.766;37.828;2022-10-16T02:52:37;6.30;;;3.67;;
40635;SDS011;26642;55.766;37.828;2022-10-16T02:55:03;5.13;;;3.60;;
40635;SDS011;26642;55.766;37.828;2022-10-16T02:57:30;6.18;;;3.75;;
40635;SDS011;26642;55.766;37.828;2022-10-16T02:59:56;7.20;;;3.70;;
40635;SDS011;26642;55.766;37.828;2022-10-16T03:02:22;7.05;;;4.00;;
40635;SDS011;26642;55.766;37.828;2022-10-16T03:04:48;7.15;;;3.70;;
40635;SDS011;26642;55.766;37.828;2022-10-16T03:07:14;6.43;;;3.97;;
40635;SDS011;26642;55.766;37.828;2022-10-16T03:09:40;11.27;;;4.38;;
40635;SDS011;26642;55.766;37.828;2022-10-16T03:12:06;5.65;;;3.70;;
40635;SDS011;26642;55.766;37.828;2022-10-16T03:14:32;9.50;;;4.05;;
40635;SDS011;26642;55.766;37.828;2022-10-16T03:17:00;7.22;;;4.22;;
40635;SDS011;26642;55.766;37.828;2022-10-16T03:19:25;6.65;;;3.80;;
40635;SDS011;26642;55.766;37.828;2022-10-16T03:21:51;7.78;;;4.38;;
40635;SDS011;26642;55.766;37.828;2022-10-16T03:24:17;6.60;;;4.25;;
40635;SDS011;26642;55.766;37.828;2022-10-16T03:26:43;8.05;;;4.47;;
40635;SDS011;26642;55.766;37.828;2022-10-16T03:29:09;6.05;;;4.15;;
40635;SDS011;26642;55.766;37.828;2022-10-16T03:31:35;6.47;;;4.68;;
40635;SDS011;26642;55.766;37.828;2022-10-16T03:34:01;7.72;;;4.78;;
40635;SDS011;26642;55.766;37.828;2022-10-16T03:36:27;8.38;;;4.22;;
40635;SDS011;26642;55.766;37.828;2022-10-16T03:38:52;8.60;;;4.57;;
40635;SDS011;26642;55.766;37.828;2022-10-16T03:41:18;6.82;;;4.22;;
40635;SDS011;26642;55.766;37.828;2022-10-16T03:43:44;7.07;;;4.38;;
40635;SDS011;26642;55.766;37.828;2022-10-16T03:46:10;7.68;;;4.65;;
40635;SDS011;26642;55.766;37.828;2022-10-16T03:48:36;11.18;;;6.05;;
40635;SDS011;26642;55.766;37.828;2022-10-16T03:51:02;10.10;;;5.30;;
40635;SDS011;26642;55.766;37.828;2022-10-16T03:53:28;6.65;;;4.90;;
40635;SDS011;26642;55.766;37.828;2022-10-16T03:55:54;8.77;;;4.40;;
40635;SDS011;26642;55.766;37.828;2022-10-16T03:58:20;8.15;;;4.65;;
40635;SDS011;26642;55.766;37.828;2022-10-16T04:00:46;8.70;;;4.45;;
40635;SDS011;26642;55.766;37.828;2022-10-16T04:03:15;7.90;;;4.70;;
40635;SDS011;26642;55.766;37.828;2022-10-16T04:05:42;8.05;;;4.90;;
40635;SDS011;26642;55.766;37.828;2022-10-16T04:08:08;8.15;;;4.80;;
40635;SDS011;26642;55.766;37.828;2022-10-16T04:10:34;10.55;;;4.63;;
40635;SDS011;26642;55.766;37.828;2022-10-16T04:12:59;8.90;;;4.70;;
40635;SDS011;26642;55.766;37.828;2022-10-16T04:15:26;9.40;;;4.13;;
40635;SDS011;26642;55.766;37.828;2022-10-16T04:17:52;7.40;;;4.82;;
40635;SDS011;26642;55.766;37.828;2022-10-16T04:20:18;7.72;;;4.20;;
40635;SDS011;26642;55.766;37.828;2022-10-16T04:22:44;8.10;;;4.10;;
40635;SDS011;26642;55.766;37.828;2022-10-16T04:25:10;9.48;;;4.25;;
40635;SDS011;26642;55.766;37.828;2022-10-16T04:27:37;6.43;;;4.22;;
40635;SDS011;26642;55.766;37.828;2022-10-16T04:30:03;7.10;;;4.03;;
40635;SDS011;26642;55.766;37.828;2022-10-16T04:32:30;6.10;;;4.38;;
40635;SDS011;26642;55.766;37.828;2022-10-16T04:34:56;6.20;;;4.22;;
40635;SDS011;26642;55.766;37.828;2022-10-16T04:37:25;5.45;;;3.97;;
40635;SDS011;26642;55.766;37.828;2022-10-16T04:39:52;8.35;;;3.92;;
40635;SDS011;26642;55.766;37.828;2022-10-16T04:42:19;5.43;;;3.72;;
40635;SDS011;26642;55.766;37.828;2022-10-16T04:44:46;9.50;;;3.95;;
40635;SDS011;26642;55.766;37.828;2022-10-16T04:47:12;6.60;;;4.22;;
40635;SDS011;26642;55.766;37.828;2022-10-16T04:49:38;8.27;;;4.57;;
40635;SDS011;26642;55.766;37.828;2022-10-16T04:52:04;6.25;;;4.30;;
40635;SDS011;26642;55.766;37.828;2022-10-16T04:54:30;7.30;;;3.80;;
40635;SDS011;26642;55.766;37.828;2022-10-16T04:56:56;7.45;;;3.95;;
40635;SDS011;26642;55.766;37.828;2022-10-16T04:59:22;10.10;;;4.25;;
40635;SDS011;26642;55.766;37.828;2022-10-16T05:01:48;6.70;;;4.55;;
40635;SDS011;26642;55.766;37.828;2022-10-16T05:04:14;9.23;;;4.50;;
40635;SDS011;26642;55.766;37.828;2022-10-16T05:06:41;6.63;;;4.03;;
40635;SDS011;26642;55.766;37.828;2022-10-16T05:09:07;8.02;;;4.30;;
40635;SDS011;26642;55.766;37.828;2022-10-16T05:11:34;6.10;;;4.00;;
40635;SDS011;26642;55.766;37.828;2022-10-16T05:14:00;7.68;;;4.35;;
40635;SDS011;26642;55.766;37.828;2022-10-16T05:16:26;7.80;;;4.75;;
40635;SDS011;26642;55.766;37.828;2022-10-16T05:18:52;7.15;;;4.57;;
40635;SDS011;26642;55.766;37.828;2022-10-16T05:21:19;7.45;;;4.53;;
40635;SDS011;26642;55.766;37.828;2022-10-16T05:23:45;9.68;;;4.38;;
40635;SDS011;26642;55.766;37.828;2022-10-16T05:26:11;9.80;;;4.22;;
40635;SDS011;26642;55.766;37.828;2022-10-16T05:28:37;6.95;;;4.45;;
40635;SDS011;26642;55.766;37.828;2022-10-16T05:31:06;6.55;;;4.90;;
40635;SDS011;26642;55.766;37.828;2022-10-16T05:33:33;10.80;;;5.10;;
40635;SDS011;26642;55.766;37.828;2022-10-16T05:36:03;8.38;;;4.30;;
40635;SDS011;26642;55.766;37.828;2022-10-16T05:38:32;9.23;;;4.78;;
40635;SDS011;26642;55.766;37.828;2022-10-16T05:40:58;7.00;;;4.50;;
40635;SDS011;26642;55.766;37.828;2022-10-16T05:43:24;8.18;;;5.00;;
40635;SDS011;26642;55.766;37.828;2022-10-16T05:45:56;8.05;;;4.53;;
40635;SDS011;26642;55.766;37.828;2022-10-16T05:48:32;7.07;;;4.50;;
40635;SDS011;26642;55.766;37.828;2022-10-16T05:53:26;9.27;;;4.63;;
40635;SDS011;26642;55.766;37.828;2022-10-16T05:55:53;12.27;;;5.10;;
40635;SDS011;26642;55.766;37.828;2022-10-16T05:58:21;7.18;;;4.57;;
40635;SDS011;26642;55.766;37.828;2022-10-16T06:00:54;8.82;;;4.30;;
40635;SDS011;26642;55.766;37.828;2022-10-16T06:03:25;9.07;;;4.43;;
40635;SDS011;26642;55.766;37.828;2022-10-16T06:05:51;8.30;;;4.22;;
40635;SDS011;26642;55.766;37.828;2022-10-16T06:08:17;6.88;;;4.00;;
40635;SDS011;26642;55.766;37.828;2022-10-16T06:10:45;9.00;;;4.30;;
40635;SDS011;26642;55.766;37.828;2022-10-16T06:13:12;9.80;;;4.38;;
40635;SDS011;26642;55.766;37.828;2022-10-16T06:15:39;13.10;;;4.72;;
40635;SDS011;26642;55.766;37.828;2022-10-16T06:18:07;5.47;;;3.75;;
40635;SDS011;26642;55.766;37.828;2022-10-16T06:20:36;8.82;;;4.28;;
40635;SDS011;26642;55.766;37.828;2022-10-16T06:23:04;7.65;;;4.22;;
40635;SDS011;26642;55.766;37.828;2022-10-16T06:25:30;5.90;;;4.10;;
40635;SDS011;26642;55.766;37.828;2022-10-16T06:27:56;11.32;;;4.93;;
40635;SDS011;26642;55.766;37.828;2022-10-16T06:30:22;8.25;;;4.60;;
40635;SDS011;26642;55.766;37.828;2022-10-16T06:32:48;7.45;;;4.55;;
40635;SDS011;26642;55.766;37.828;2022-10-16T06:35:14;7.43;;;4.38;;
40635;SDS011;26642;55.766;37.828;2022-10-16T06:37:40;6.80;;;4.38;;
40635;SDS011;26642;55.766;37.828;2022-10-16T06:40:06;9.35;;;4.40;;
40635;SDS011;26642;55.766;37.828;2022-10-16T06:42:32;9.40;;;4.47;;
40635;SDS011;26642;55.766;37.828;2022-10-16T06:44:59;9.20;;;4.70;;
40635;SDS011;26642;55.766;37.828;2022-10-16T06:47:27;12.02;;;4.72;;
40635;SDS011;26642;55.766;37.828;2022-10-16T06:49:52;11.18;;;4.45;;
40635;SDS011;26642;55.766;37.828;2022-10-16T06:52:18;11.30;;;4.63;;
40635;SDS011;26642;55.766;37.828;2022-10-16T06:54:44;6.47;;;4.20;;
40635;SDS011;26642;55.766;37.828;2022-10-16T06:57:10;7.28;;;4.13;;
40635;SDS011;26642;55.766;37.828;2022-10-16T06:59:36;7.88;;;4.10;;
40635;SDS011;26642;55.766;37.828;2022-10-16T07:02:02;8.43;;;4.13;;
40635;SDS011;26642;55.766;37.828;2022-10-16T07:04:28;9.45;;;4.55;;
40635;SDS011;26642;55.766;37.828;2022-10-16T07:06:54;9.27;;;4.63;;
40635;SDS011;26642;55.766;37.828;2022-10-16T07:09:20;8.90;;;4.70;;
40635;SDS011;26642;55.766;37.828;2022-10-16T07:11:45;6.60;;;4.50;;
40635;SDS011;26642;55.766;37.828;2022-10-16T07:14:15;5.85;;;4.32;;
40635;SDS011;26642;55.766;37.828;2022-10-16T07:16:43;9.18;;;4.53;;
40635;SDS011;26642;55.766;37.828;2022-10-16T07:19:09;8.52;;;4.78;;
40635;SDS011;26642;55.766;37.828;2022-10-16T07:21:37;9.07;;;4.60;;
40635;SDS011;26642;55.766;37.828;2022-10-16T07:24:06;7.43;;;4.72;;
40635;SDS011;26642;55.766;37.828;2022-10-16T07:26:36;10.93;;;4.63;;
40635;SDS011;26642;55.766;37.828;2022-10-16T07:29:05;7.18;;;4.47;;
40635;SDS011;26642;55.766;37.828;2022-10-16T07:31:33;11.73;;;5.00;;
40635;SDS011;26642;55.766;37.828;2022-10-16T07:33:59;7.82;;;4.38;;
40635;SDS011;26642;55.766;37.828;2022-10-16T07:36:26;7.88;;;4.30;;
40635;SDS011;26642;55.766;37.828;2022-10-16T07:38:52;9.52;;;4.75;;
40635;SDS011;26642;55.766;37.828;2022-10-16T07:41:19;12.27;;;4.13;;
40635;SDS011;26642;55.766;37.828;2022-10-16T07:43:48;7.78;;;4.43;;
40635;SDS011;26642;55.766;37.828;2022-10-16T07:46:16;11.38;;;4.50;;
40635;SDS011;26642;55.766;37.828;2022-10-16T07:48:43;11.45;;;4.85;;
40635;SDS011;26642;55.766;37.828;2022-10-16T07:51:12;20.30;;;5.43;;
40635;SDS011;26642;55.766;37.828;2022-10-16T07:53:43;8.18;;;4.13;;
40635;SDS011;26642;55.766;37.828;2022-10-16T07:56:09;13.77;;;4.40;;
40635;SDS011;26642;55.766;37.828;2022-10-16T07:58:36;7.93;;;4.07;;
40635;SDS011;26642;55.766;37.828;2022-10-16T08:01:03;10.68;;;4.68;;
40635;SDS011;26642;55.766;37.828;2022-10-16T08:03:31;9.60;;;4.68;;
40635;SDS011;26642;55.766;37.828;2022-10-16T08:05:57;8.27;;;4.55;;
40635;SDS011;26642;55.766;37.828;2022-10-16T08:08:23;7.80;;;4.43;;
40635;SDS011;26642;55.766;37.828;2022-10-16T08:10:49;7.35;;;4.45;;
40635;SDS011;26642;55.766;37.828;2022-10-16T08:13:16;8.77;;;3.97;;
40635;SDS011;26642;55.766;37.828;2022-10-16T08:15:45;7.32;;;3.90;;
40635;SDS011;26642;55.766;37.828;2022-10-16T08:18:12;6.05;;;3.70;;
40635;SDS011;26642;55.766;37.828;2022-10-16T08:20:39;6.03;;;3.78;;
40635;SDS011;26642;55.766;37.828;2022-10-16T08:23:05;7.43;;;3.80;;
40635;SDS011;26642;55.766;37.828;2022-10-16T08:25:34;7.45;;;3.50;;
40635;SDS011;26642;55.766;37.828;2022-10-16T08:28:05;8.65;;;4.20;;
40635;SDS011;26642;55.766;37.828;2022-10-16T08:30:35;9.57;;;3.92;;
40635;SDS011;26642;55.766;37.828;2022-10-16T08:33:01;10.20;;;3.50;;
40635;SDS011;26642;55.766;37.828;2022-10-16T08:35:27;6.28;;;3.70;;
40635;SDS011;26642;55.766;37.828;2022-10-16T08:37:53;7.63;;;3.97;;
40635;SDS011;26642;55.766;37.828;2022-10-16T08:40:26;9.35;;;4.45;;
40635;SDS011;26642;55.766;37.828;2022-10-16T08:50:55;5.90;;;3.88;;
40635;SDS011;26642;55.766;37.828;2022-10-16T08:53:24;7.32;;;4.40;;
40635;SDS011;26642;55.766;37.828;2022-10-16T08:55:56;8.65;;;4.10;;
40635;SDS011;26642;55.766;37.828;2022-10-16T08:58:27;10.65;;;3.97;;
40635;SDS011;26642;55.766;37.828;2022-10-16T09:00:56;8.35;;;3.88;;
40635;SDS011;26642;55.766;37.828;2022-10-16T09:03:28;9.65;;;4.28;;
40635;SDS011;26642;55.766;37.828;2022-10-16T09:06:07;7.65;;;3.90;;
40635;SDS011;26642;55.766;37.828;2022-10-16T09:17:06;8.98;;;3.58;;
40635;SDS011;26642;55.766;37.828;2022-10-16T09:19:49;7.32;;;3.75;;
40635;SDS011;26642;55.766;37.828;2022-10-16T09:22:21;7.20;;;3.38;;
40635;SDS011;26642;55.766;37.828;2022-10-16T09:24:54;7.88;;;3.63;;
40635;SDS011;26642;55.766;37.828;2022-10-16T09:27:24;5.95;;;3.20;;
40635;SDS011;26642;55.766;37.828;2022-10-16T09:29:51;5.88;;;3.00;;
40635;SDS011;26642;55.766;37.828;2022-10-16T09:32:19;7.00;;;3.25;;
40635;SDS011;26642;55.766;37.828;2022-10-16T09:34:54;6.75;;;3.30;;
40635;SDS011;26642;55.766;37.828;2022-10-16T09:37:23;7.38;;;3.15;;
40635;SDS011;26642;55.766;37.828;2022-10-16T09:39:52;8.43;;;3.88;;
40635;SDS011;26642;55.766;37.828;2022-10-16T09:42:19;4.32;;;2.95;;
40635;SDS011;26642;55.766;37.828;2022-10-16T09:44:49;7.43;;;3.42;;
40635;SDS011;26642;55.766;37.828;2022-10-16T09:47:23;5.15;;;2.97;;
40635;SDS011;26642;55.766;37.828;2022-10-16T09:52:24;5.93;;;3.05;;
40635;SDS011;26642;55.766;37.828;2022-10-16T09:54:51;4.55;;;2.90;;
40635;SDS011;26642;55.766;37.828;2022-10-16T09:57:19;5.88;;;2.80;;
40635;SDS011;26642;55.766;37.828;2022-10-16T09:59:53;6.28;;;3.10;;
40635;SDS011;26642;55.766;37.828;2022-10-16T10:02:28;10.60;;;2.95;;
40635;SDS011;26642;55.766;37.828;2022-10-16T10:05:04;4.25;;;2.63;;
40635;SDS011;26642;55.766;37.828;2022-10-16T10:07:43;5.95;;;3.22;;
40635;SDS011;26642;55.766;37.828;2022-10-16T10:10:20;7.55;;;2.78;;
40635;SDS011;26642;55.766;37.828;2022-10-16T10:12:48;8.13;;;2.83;;
40635;SDS011;26642;55.766;37.828;2022-10-16T10:15:14;5.78;;;2.90;;
40635;SDS011;26642;55.766;37.828;2022-10-16T10:17:56;6.05;;;3.00;;
40635;SDS011;26642;55.766;37.828;2022-10-16T10:22:58;3.35;;;2.60;;
40635;SDS011;26642;55.766;37.828;2022-10-16T10:33:25;4.93;;;2.58;;
40635;SDS011;26642;55.766;37.828;2022-10-16T10:38:48;5.57;;;2.47;;
40635;SDS011;26642;55.766;37.828;2022-10-16T10:53:29;6.13;;;2.13;;
40635;SDS011;26642;55.766;37.828;2022-10-16T10:56:43;3.20;;;2.40;;
40635;SDS011;26642;55.766;37.828;2022-10-16T10:59:37;3.88;;;1.83;;
40635;SDS011;26642;55.766;37.828;2022-10-16T11:05:46;5.10;;;2.40;;
40635;SDS011;26642;55.766;37.828;2022-10-16T11:08:22;3.65;;;1.90;;
40635;SDS011;26642;55.766;37.828;2022-10-16T11:10:58;5.00;;;2.30;;
40635;SDS011;26642;55.766;37.828;2022-10-16T11:16:23;6.10;;;2.13;;
40635;SDS011;26642;55.766;37.828;2022-10-16T11:18:58;2.15;;;1.98;;
40635;SDS011;26642;55.766;37.828;2022-10-16T11:21:44;4.63;;;2.10;;
40635;SDS011;26642;55.766;37.828;2022-10-16T11:24:23;6.63;;;2.20;;
40635;SDS011;26642;55.766;37.828;2022-10-16T11:27:00;4.85;;;2.25;;
40635;SDS011;26642;55.766;37.828;2022-10-16T11:29:49;6.05;;;2.33;;
40635;SDS011;26642;55.766;37.828;2022-10-16T11:32:34;2.40;;;2.08;;
40635;SDS011;26642;55.766;37.828;2022-10-16T11:35:25;4.65;;;2.25;;
40635;SDS011;26642;55.766;37.828;2022-10-16T11:38:02;5.43;;;1.85;;
40635;SDS011;26642;55.766;37.828;2022-10-16T11:40:34;5.82;;;2.00;;
40635;SDS011;26642;55.766;37.828;2022-10-16T11:43:11;4.00;;;1.98;;
40635;SDS011;26642;55.766;37.828;2022-10-16T11:45:44;4.28;;;2.17;;
40635;SDS011;26642;55.766;37.828;2022-10-16T11:48:27;6.00;;;2.13;;
40635;SDS011;26642;55.766;37.828;2022-10-16T11:51:25;3.05;;;2.20;;
40635;SDS011;26642;55.766;37.828;2022-10-16T11:54:20;3.22;;;2.22;;
40635;SDS011;26642;55.766;37.828;2022-10-16T11:56:59;2.47;;;1.90;;
40635;SDS011;26642;55.766;37.828;2022-10-16T11:59:43;3.50;;;2.40;;
40635;SDS011;26642;55.766;37.828;2022-10-16T12:02:26;4.13;;;2.30;;
40635;SDS011;26642;55.766;37.828;2022-10-16T12:07:39;5.65;;;1.80;;
40635;SDS011;26642;55.766;37.828;2022-10-16T12:10:19;6.38;;;2.65;;
40635;SDS011;26642;55.766;37.828;2022-10-16T12:12:50;3.95;;;2.05;;
40635;SDS011;26642;55.766;37.828;2022-10-16T12:17:52;4.80;;;2.08;;
40635;SDS011;26642;55.766;37.828;2022-10-16T12:20:20;5.85;;;2.33;;
40635;SDS011;26642;55.766;37.828;2022-10-16T12:23:06;5.32;;;2.05;;
40635;SDS011;26642;55.766;37.828;2022-10-16T12:25:43;5.28;;;2.05;;
40635;SDS011;26642;55.766;37.828;2022-10-16T12:28:27;6.18;;;2.30;;
40635;SDS011;26642;55.766;37.828;2022-10-16T12:33:25;3.47;;;2.40;;
40635;SDS011;26642;55.766;37.828;2022-10-16T12:35:51;4.28;;;2.50;;
40635;SDS011;26642;55.766;37.828;2022-10-16T12:40:56;5.60;;;2.55;;
40635;SDS011;26642;55.766;37.828;2022-10-16T12:48:35;5.22;;;2.55;;
40635;SDS011;26642;55.766;37.828;2022-10-16T12:51:19;3.33;;;2.03;;
40635;SDS011;26642;55.766;37.828;2022-10-16T12:53:57;3.13;;;1.77;;
40635;SDS011;26642;55.766;37.828;2022-10-16T12:56:27;4.75;;;2.13;;
40635;SDS011;26642;55.766;37.828;2022-10-16T13:02:11;4.47;;;2.15;;
40635;SDS011;26642;55.766;37.828;2022-10-16T13:04:32;4.60;;;2.30;;
40635;SDS011;26642;55.766;37.828;2022-10-16T13:07:53;6.68;;;2.30;;
40635;SDS011;26642;55.766;37.828;2022-10-16T13:10:00;5.40;;;2.83;;
40635;SDS011;26642;55.766;37.828;2022-10-16T13:18:15;3.55;;;2.00;;
40635;SDS011;26642;55.766;37.828;2022-10-16T13:29:14;5.18;;;2.35;;
40635;SDS011;26642;55.766;37.828;2022-10-16T13:31:41;4.10;;;2.38;;
40635;SDS011;26642;55.766;37.828;2022-10-16T13:34:11;5.13;;;2.35;;
40635;SDS011;26642;55.766;37.828;2022-10-16T13:36:44;4.13;;;2.15;;
40635;SDS011;26642;55.766;37.828;2022-10-16T13:41:39;4.55;;;2.50;;
40635;SDS011;26642;55.766;37.828;2022-10-16T13:44:11;4.95;;;2.85;;
40635;SDS011;26642;55.766;37.828;2022-10-16T13:46:41;4.97;;;2.75;;
40635;SDS011;26642;55.766;37.828;2022-10-16T13:49:16;4.43;;;2.47;;
40635;SDS011;26642;55.766;37.828;2022-10-16T13:51:59;3.95;;;2.13;;
40635;SDS011;26642;55.766;37.828;2022-10-16T13:54:26;5.40;;;2.45;;
40635;SDS011;26642;55.766;37.828;2022-10-16T13:56:56;6.28;;;2.63;;
40635;SDS011;26642;55.766;37.828;2022-10-16T13:59:33;7.70;;;2.60;;
40635;SDS011;26642;55.766;37.828;2022-10-16T14:02:05;4.50;;;2.88;;
40635;SDS011;26642;55.766;37.828;2022-10-16T14:04:41;6.80;;;2.70;;
40635;SDS011;26642;55.766;37.828;2022-10-16T14:07:12;4.90;;;2.67;;
40635;SDS011;26642;55.766;37.828;2022-10-16T14:09:40;5.88;;;2.90;;
40635;SDS011;26642;55.766;37.828;2022-10-16T14:12:10;3.63;;;2.60;;
40635;SDS011;26642;55.766;37.828;2022-10-16T14:14:41;5.95;;;3.13;;
40635;SDS011;26642;55.766;37.828;2022-10-16T14:17:28;6.65;;;2.83;;
40635;SDS011;26642;55.766;37.828;2022-10-16T14:20:00;5.50;;;2.55;;
40635;SDS011;26642;55.766;37.828;2022-10-16T14:22:37;4.63;;;2.78;;
40635;SDS011;26642;55.766;37.828;2022-10-16T14:25:19;4.25;;;2.35;;
40635;SDS011;26642;55.766;37.828;2022-10-16T14:30:28;6.15;;;3.00;;
40635;SDS011;26642;55.766;37.828;2022-10-16T14:35:26;6.05;;;3.00;;
40635;SDS011;26642;55.766;37.828;2022-10-16T14:37:56;8.63;;;2.78;;
40635;SDS011;26642;55.766;37.828;2022-10-16T14:40:24;7.28;;;3.05;;
40635;SDS011;26642;55.766;37.828;2022-10-16T14:42:52;5.88;;;3.30;;
40635;SDS011;26642;55.766;37.828;2022-10-16T14:45:23;8.95;;;3.47;;
40635;SDS011;26642;55.766;37.828;2022-10-16T14:47:52;5.53;;;2.70;;
40635;SDS011;26642;55.766;37.828;2022-10-16T14:50:20;6.15;;;2.40;;
40635;SDS011;26642;55.766;37.828;2022-10-16T14:52:47;10.73;;;3.20;;
40635;SDS011;26642;55.766;37.828;2022-10-16T14:55:13;10.05;;;3.42;;
40635;SDS011;26642;55.766;37.828;2022-10-16T14:57:39;3.80;;;2.80;;
40635;SDS011;26642;55.766;37.828;2022-10-16T15:00:16;6.43;;;3.10;;
40635;SDS011;26642;55.766;37.828;2022-10-16T15:02:45;5.25;;;2.97;;
40635;SDS011;26642;55.766;37.828;2022-10-16T15:05:19;5.50;;;3.30;;
40635;SDS011;26642;55.766;37.828;2022-10-16T15:07:48;4.22;;;2.67;;
40635;SDS011;26642;55.766;37.828;2022-10-16T15:10:15;6.13;;;3.25;;
40635;SDS011;26642;55.766;37.828;2022-10-16T15:12:42;6.93;;;3.70;;
40635;SDS011;26642;55.766;37.828;2022-10-16T15:15:15;5.32;;;3.10;;
40635;SDS011;26642;55.766;37.828;2022-10-16T15:17:55;6.63;;;3.28;;
40635;SDS011;26642;55.766;37.828;2022-10-16T15:20:22;3.40;;;2.70;;
40635;SDS011;26642;55.766;37.828;2022-10-16T15:22:50;6.30;;;3.50;;
40635;SDS011;26642;55.766;37.828;2022-10-16T15:28:14;6.05;;;3.28;;
40635;SDS011;26642;55.766;37.828;2022-10-16T15:30:40;5.38;;;3.50;;
40635;SDS011;26642;55.766;37.828;2022-10-16T15:33:14;6.03;;;3.20;;
40635;SDS011;26642;55.766;37.828;2022-10-16T15:35:42;5.07;;;3.22;;
40635;SDS011;26642;55.766;37.828;2022-10-16T15:38:11;8.65;;;3.72;;
40635;SDS011;26642;55.766;37.828;2022-10-16T15:40:39;6.78;;;3.60;;
40635;SDS011;26642;55.766;37.828;2022-10-16T15:43:05;6.40;;;3.72;;
40635;SDS011;26642;55.766;37.828;2022-10-16T15:45:32;9.93;;;4.13;;
40635;SDS011;26642;55.766;37.828;2022-10-16T15:47:58;7.93;;;3.60;;
40635;SDS011;26642;55.766;37.828;2022-10-16T15:50:23;6.13;;;3.42;;
40635;SDS011;26642;55.766;37.828;2022-10-16T15:52:50;4.72;;;3.50;;
40635;SDS011;26642;55.766;37.828;2022-10-16T15:55:17;7.63;;;3.80;;
40635;SDS011;26642;55.766;37.828;2022-10-16T15:57:44;6.55;;;3.58;;
40635;SDS011;26642;55.766;37.828;2022-10-16T16:00:11;5.88;;;3.40;;
40635;SDS011;26642;55.766;37.828;2022-10-16T16:02:39;5.50;;;3.40;;
40635;SDS011;26642;55.766;37.828;2022-10-16T16:05:06;4.45;;;3.28;;
40635;SDS011;26642;55.766;37.828;2022-10-16T16:07:34;9.18;;;3.97;;
40635;SDS011;26642;55.766;37.828;2022-10-16T16:10:01;5.63;;;3.53;;
40635;SDS011;26642;55.766;37.828;2022-10-16T16:12:29;8.50;;;4.30;;
40635;SDS011;26642;55.766;37.828;2022-10-16T16:14:55;5.93;;;3.80;;
40635;SDS011;26642;55.766;37.828;2022-10-16T16:17:21;6.15;;;3.72;;
40635;SDS011;26642;55.766;37.828;2022-10-16T16:19:46;6.47;;;4.15;;
40635;SDS011;26642;55.766;37.828;2022-10-16T16:22:12;8.88;;;4.18;;
40635;SDS011;26642;55.766;37.828;2022-10-16T16:24:38;7.90;;;4.35;;
40635;SDS011;26642;55.766;37.828;2022-10-16T16:27:04;5.22;;;3.95;;
40635;SDS011;26642;55.766;37.828;2022-10-16T16:29:32;7.20;;;3.95;;
40635;SDS011;26642;55.766;37.828;2022-10-16T16:31:59;8.52;;;4.60;;
40635;SDS011;26642;55.766;37.828;2022-10-16T16:34:26;7.93;;;4.20;;
40635;SDS011;26642;55.766;37.828;2022-10-16T16:36:54;7.53;;;4.10;;
40635;SDS011;26642;55.766;37.828;2022-10-16T16:39:20;9.85;;;4.25;;
40635;SDS011;26642;55.766;37.828;2022-10-16T16:41:47;7.80;;;4.57;;
40635;SDS011;26642;55.766;37.828;2022-10-16T16:44:13;9.32;;;4.93;;
40635;SDS011;26642;55.766;37.828;2022-10-16T16:46:41;11.85;;;5.13;;